createdAt,value
2022-11-13T00:01:11.822Z,4.75
2022-11-13T00:03:58.528Z,4.76
2022-11-13T00:06:43.746Z,4.84
2022-11-13T00:09:28.396Z,4.88
2022-11-13T00:12:13.266Z,4.85
2022-11-13T00:14:57.986Z,4.84
2022-11-13T00:17:42.778Z,4.85
2022-11-13T00:20:27.509Z,4.86
2022-11-13T00:23:12.179Z,4.86
2022-11-13T00:25:56.999Z,4.85
2022-11-13T00:28:42.479Z,4.88
2022-11-13T00:31:28.573Z,4.93
2022-11-13T00:34:40.938Z,4.95
2022-11-13T00:37:18.869Z,4.94
2022-11-13T00:40:04.871Z,4.92
2022-11-13T00:42:49.606Z,4.88
2022-11-13T00:45:34.523Z,4.83
2022-11-13T00:48:19.655Z,4.79
2022-11-13T00:51:04.801Z,4.80
2022-11-13T00:53:51.054Z,4.83
2022-11-13T00:56:35.859Z,4.83
2022-11-13T00:59:21.022Z,4.82
2022-11-13T01:02:06.047Z,4.82
2022-11-13T01:04:51.181Z,4.76
2022-11-13T01:07:37.621Z,4.75
2022-11-13T01:10:22.905Z,4.70
2022-11-13T01:13:07.966Z,4.75
2022-11-13T01:15:53.796Z,4.74
2022-11-13T01:18:41.173Z,4.75
2022-11-13T01:21:27.663Z,4.71
2022-11-13T01:24:12.787Z,4.67
2022-11-13T01:26:57.535Z,4.60
2022-11-13T01:29:42.938Z,4.60
2022-11-13T01:32:27.949Z,4.59
2022-11-13T01:35:13.081Z,4.56
2022-11-13T01:37:57.867Z,4.56
2022-11-13T01:40:46.786Z,4.55
2022-11-13T01:43:37.676Z,4.50
2022-11-13T01:46:25.630Z,4.48
2022-11-13T01:49:10.629Z,4.50
2022-11-13T01:52:01.939Z,4.50
2022-11-13T01:54:53.930Z,4.48
2022-11-13T01:57:39.852Z,4.48
2022-11-13T02:00:24.760Z,4.50
2022-11-13T02:03:10.692Z,4.51
2022-11-13T02:05:56.341Z,4.49
2022-11-13T02:08:41.839Z,4.49
2022-11-13T02:11:27.018Z,4.38
2022-11-13T02:14:14.454Z,4.34
2022-11-13T02:17:05.757Z,4.29
2022-11-13T02:19:55.880Z,4.24
2022-11-13T02:22:48.491Z,4.18
2022-11-13T02:25:34.730Z,4.17
2022-11-13T02:28:20.077Z,4.15
2022-11-13T02:31:09.860Z,4.15
2022-11-13T02:33:54.944Z,4.13
2022-11-13T02:36:40.142Z,4.10
2022-11-13T02:39:25.507Z,4.14
2022-11-13T02:42:11.337Z,4.20
2022-11-13T02:44:56.418Z,4.21
2022-11-13T02:47:41.271Z,4.22
2022-11-13T02:50:26.527Z,4.16
2022-11-13T02:53:11.595Z,4.13
2022-11-13T02:55:56.339Z,4.06
2022-11-13T02:58:41.046Z,3.97
2022-11-13T03:01:26.110Z,3.93
2022-11-13T03:04:10.889Z,3.88
2022-11-13T03:06:55.952Z,3.81
2022-11-13T03:09:41.414Z,3.84
2022-11-13T03:12:26.426Z,3.83
2022-11-13T03:15:11.623Z,3.81
2022-11-13T03:17:56.639Z,3.81
2022-11-13T03:20:43.779Z,3.78
2022-11-13T03:23:28.838Z,3.76
2022-11-13T03:26:16.547Z,3.71
2022-11-13T03:29:01.657Z,3.70
2022-11-13T03:31:46.468Z,3.70
2022-11-13T03:34:32.171Z,3.73
2022-11-13T03:37:17.223Z,3.71
2022-11-13T03:40:02.124Z,3.69
2022-11-13T03:42:47.007Z,3.68
2022-11-13T03:45:32.184Z,3.68
2022-11-13T03:48:17.574Z,3.64
2022-11-13T03:51:03.073Z,3.65
2022-11-13T03:53:47.797Z,3.67
2022-11-13T03:56:32.655Z,3.72
2022-11-13T03:59:17.576Z,3.70
2022-11-13T04:02:02.348Z,3.68
2022-11-13T04:04:47.148Z,3.69
2022-11-13T04:07:32.299Z,3.67
2022-11-13T04:10:18.158Z,3.65
2022-11-13T04:13:03.139Z,3.65
2022-11-13T04:15:47.848Z,3.63
2022-11-13T04:18:33.120Z,3.63
2022-11-13T04:21:17.903Z,3.61
2022-11-13T04:24:03.053Z,3.61
2022-11-13T04:26:48.038Z,3.60
2022-11-13T04:29:32.810Z,3.61
2022-11-13T04:32:17.728Z,3.63
2022-11-13T04:35:02.771Z,3.57
2022-11-13T04:37:47.865Z,3.58
2022-11-13T04:40:32.695Z,3.62
2022-11-13T04:43:17.587Z,3.67
2022-11-13T04:46:02.413Z,3.71
2022-11-13T04:48:47.264Z,3.77
2022-11-13T04:51:32.022Z,3.81
2022-11-13T04:54:17.014Z,3.84
2022-11-13T04:57:02.253Z,3.83
2022-11-13T04:59:46.875Z,3.78
2022-11-13T05:02:31.812Z,3.74
2022-11-13T05:05:16.909Z,3.71
2022-11-13T05:08:02.068Z,3.73
2022-11-13T05:10:46.832Z,3.72
2022-11-13T05:13:33.722Z,3.77
2022-11-13T05:16:18.549Z,3.75
2022-11-13T05:19:06.944Z,3.75
2022-11-13T05:21:52.240Z,3.78
2022-11-13T05:24:37.056Z,3.79
2022-11-13T05:27:21.996Z,3.79
2022-11-13T05:30:07.794Z,3.79
2022-11-13T05:32:52.995Z,3.77
2022-11-13T05:35:37.964Z,3.74
2022-11-13T05:38:22.595Z,3.70
2022-11-13T05:41:33.600Z,3.67
2022-11-13T05:44:18.755Z,3.61
2022-11-13T05:47:03.613Z,3.60
2022-11-13T05:49:48.436Z,3.60
2022-11-13T05:52:33.329Z,3.62
2022-11-13T05:55:22.166Z,3.63
2022-11-13T05:58:08.151Z,3.64
2022-11-13T06:00:53.146Z,3.65
2022-11-13T06:03:37.998Z,3.67
2022-11-13T06:06:24.162Z,3.68
2022-11-13T06:09:10.426Z,3.60
2022-11-13T06:11:55.313Z,3.63
2022-11-13T06:14:40.195Z,3.64
2022-11-13T06:17:24.962Z,3.61
2022-11-13T06:20:10.030Z,3.54
2022-11-13T06:22:55.143Z,3.53
2022-11-13T06:25:40.077Z,3.47
2022-11-13T06:28:24.988Z,3.39
2022-11-13T06:31:11.828Z,3.34
2022-11-13T06:33:59.294Z,3.35
2022-11-13T06:36:44.232Z,3.35
2022-11-13T06:39:29.009Z,3.36
2022-11-13T06:42:13.852Z,3.35
2022-11-13T06:44:58.701Z,3.33
2022-11-13T06:47:43.546Z,3.33
2022-11-13T06:50:28.460Z,3.31
2022-11-13T06:53:13.739Z,3.34
2022-11-13T06:55:59.405Z,3.35
2022-11-13T06:58:44.716Z,3.38
2022-11-13T07:01:29.555Z,3.43
2022-11-13T07:04:14.984Z,3.46
2022-11-13T07:07:00.272Z,3.52
2022-11-13T07:09:45.441Z,3.58
2022-11-13T07:12:30.272Z,3.61
2022-11-13T07:15:16.494Z,3.64
2022-11-13T07:18:02.585Z,3.66
2022-11-13T07:20:47.396Z,3.64
2022-11-13T07:23:33.239Z,3.62
2022-11-13T07:26:19.042Z,3.67
2022-11-13T07:29:03.744Z,3.71
2022-11-13T07:31:48.594Z,3.75
2022-11-13T07:34:33.541Z,3.83
2022-11-13T07:37:19.042Z,3.90
2022-11-13T07:40:05.516Z,3.93
2022-11-13T07:43:01.288Z,4.01
2022-11-13T07:45:46.217Z,4.11
2022-11-13T07:48:31.947Z,4.18
2022-11-13T07:51:17.093Z,4.27
2022-11-13T07:54:01.960Z,4.38
2022-11-13T07:56:47.303Z,4.47
2022-11-13T07:59:32.120Z,4.59
2022-11-13T08:02:17.019Z,4.72
2022-11-13T08:05:02.249Z,4.83
2022-11-13T08:07:51.373Z,4.95
2022-11-13T08:10:36.991Z,5.04
2022-11-13T08:13:22.128Z,5.17
2022-11-13T08:16:07.401Z,5.29
2022-11-13T08:18:52.710Z,5.41
2022-11-13T08:21:37.868Z,5.55
2022-11-13T08:24:22.835Z,5.68
2022-11-13T08:27:07.880Z,5.81
2022-11-13T08:29:53.259Z,5.94
2022-11-13T08:32:38.023Z,6.06
2022-11-13T08:35:28.053Z,6.13
2022-11-13T08:38:14.471Z,6.23
2022-11-13T08:41:04.546Z,6.29
2022-11-13T08:43:53.272Z,6.37
2022-11-13T08:46:38.335Z,6.45
2022-11-13T08:49:23.945Z,6.52
2022-11-13T08:52:08.624Z,6.60
2022-11-13T08:54:54.518Z,6.63
2022-11-13T08:57:40.327Z,6.62
2022-11-13T09:00:25.159Z,6.62
2022-11-13T09:03:12.317Z,6.59
2022-11-13T09:05:57.174Z,6.58
2022-11-13T09:08:41.980Z,6.60
2022-11-13T09:11:29.784Z,6.65
2022-11-13T09:14:14.935Z,6.69
2022-11-13T09:16:59.977Z,6.72
2022-11-13T09:19:44.958Z,6.76
2022-11-13T09:22:29.749Z,6.86
2022-11-13T09:25:15.279Z,7.01
2022-11-13T09:28:01.598Z,7.14
2022-11-13T09:30:46.506Z,7.30
2022-11-13T09:33:31.369Z,7.43
2022-11-13T09:36:16.310Z,7.52
2022-11-13T09:39:01.539Z,7.61
2022-11-13T09:41:57.893Z,7.70
2022-11-13T09:44:48.738Z,7.81
2022-11-13T09:47:39.103Z,7.94
2022-11-13T09:50:27.723Z,8.08
2022-11-13T09:53:14.112Z,8.22
2022-11-13T09:56:14.823Z,8.39
2022-11-13T09:59:16.583Z,8.54
2022-11-13T10:02:15.287Z,8.68
2022-11-13T10:05:07.462Z,8.79
2022-11-13T10:08:02.753Z,8.89
2022-11-13T10:11:32.093Z,9.04
2022-11-13T10:14:23.583Z,9.17
2022-11-13T10:17:14.638Z,9.19
2022-11-13T10:20:02.371Z,9.21
2022-11-13T10:22:51.720Z,9.30
2022-11-13T10:25:38.635Z,9.50
2022-11-13T10:31:49.144Z,9.71
2022-11-13T10:34:34.521Z,9.74
2022-11-13T10:37:44.251Z,9.91
2022-11-13T10:40:34.704Z,9.98
2022-11-13T10:43:26.055Z,9.95
2022-11-13T10:46:31.280Z,9.96
2022-11-13T10:49:22.030Z,9.96
2022-11-13T10:52:22.055Z,10.09
2022-11-13T10:55:22.025Z,10.25
2022-11-13T10:58:19.010Z,10.39
2022-11-13T11:01:14.799Z,10.53
2022-11-13T11:03:59.698Z,10.65
2022-11-13T11:09:51.175Z,11.09
2022-11-13T11:12:36.171Z,11.30
2022-11-13T11:15:25.518Z,11.42
2022-11-13T11:18:23.683Z,11.58
2022-11-13T11:21:32.336Z,11.74
2022-11-13T11:24:17.300Z,11.88
2022-11-13T11:27:11.998Z,12.00
2022-11-13T11:30:12.636Z,12.14
2022-11-13T11:33:06.822Z,12.22
2022-11-13T11:35:58.175Z,12.30
2022-11-13T11:39:05.110Z,12.39
2022-11-13T11:41:57.227Z,12.53
2022-11-13T11:45:25.645Z,12.59
2022-11-13T11:48:16.436Z,12.76
2022-11-13T11:51:21.093Z,13.00
2022-11-13T11:54:34.345Z,13.12
2022-11-13T11:57:42.312Z,13.16
2022-11-13T12:00:31.829Z,13.13
2022-11-13T12:03:39.813Z,13.28
2022-11-13T12:06:36.318Z,13.44
2022-11-13T12:09:33.266Z,13.53
2022-11-13T12:12:37.353Z,13.64
2022-11-13T12:16:00.545Z,13.81
2022-11-13T12:18:55.729Z,13.91
2022-11-13T12:22:06.680Z,14.00
2022-11-13T12:25:14.719Z,14.18
2022-11-13T12:28:11.382Z,14.27
2022-11-13T12:31:12.349Z,14.17
2022-11-13T12:34:01.735Z,14.07
2022-11-13T12:36:47.618Z,14.07
2022-11-13T12:40:01.400Z,14.27
2022-11-13T12:42:54.373Z,14.38
2022-11-13T12:45:39.333Z,14.40
2022-11-13T12:48:43.324Z,14.53
2022-11-13T12:51:40.288Z,14.53
2022-11-13T12:54:36.756Z,14.50
2022-11-13T12:57:29.974Z,14.60
2022-11-13T13:00:26.561Z,14.64
2022-11-13T13:03:33.334Z,14.66
2022-11-13T13:06:39.065Z,14.61
2022-11-13T13:09:45.123Z,14.46
2022-11-13T13:12:56.727Z,14.51
2022-11-13T13:15:53.178Z,14.45
2022-11-13T13:18:39.702Z,14.53
2022-11-13T13:21:24.568Z,14.51
2022-11-13T13:24:25.067Z,14.73
2022-11-13T13:27:24.628Z,14.87
2022-11-13T13:30:22.168Z,14.82
2022-11-13T13:33:25.599Z,14.90
2022-11-13T13:36:15.675Z,14.94
2022-11-13T13:39:19.692Z,14.89
2022-11-13T13:43:10.769Z,14.86
2022-11-13T13:46:16.367Z,14.59
2022-11-13T13:49:11.938Z,14.55
2022-11-13T13:51:58.114Z,14.53
2022-11-13T13:54:45.348Z,14.42
2022-11-13T13:57:30.530Z,14.35
2022-11-13T14:00:18.974Z,14.28
2022-11-13T14:03:04.646Z,14.26
2022-11-13T14:05:49.602Z,14.17
2022-11-13T14:08:34.668Z,13.98
2022-11-13T14:11:29.808Z,13.93
2022-11-13T14:14:20.830Z,13.88
2022-11-13T14:17:06.838Z,13.89
2022-11-13T14:19:53.740Z,13.96
2022-11-13T14:22:40.321Z,13.91
2022-11-13T14:25:28.880Z,13.81
2022-11-13T14:28:19.822Z,13.63
2022-11-13T14:31:08.407Z,13.36
2022-11-13T14:33:54.114Z,13.00
2022-11-13T14:36:40.981Z,12.64
2022-11-13T14:39:33.554Z,12.29
2022-11-13T14:42:26.849Z,12.09
2022-11-13T14:45:16.656Z,11.87
2022-11-13T14:48:17.934Z,11.81
2022-11-13T14:51:05.627Z,11.80
2022-11-13T14:54:06.119Z,11.65
2022-11-13T14:56:52.721Z,11.71
2022-11-13T14:59:38.861Z,12.03
2022-11-13T15:02:23.524Z,13.00
2022-11-13T15:05:08.601Z,14.19
2022-11-13T15:07:55.630Z,15.04
2022-11-13T15:10:41.094Z,15.49
2022-11-13T15:13:26.392Z,14.54
2022-11-13T15:16:22.687Z,13.38
2022-11-13T15:19:16.503Z,12.67
2022-11-13T15:25:17.615Z,14.32
2022-11-13T15:28:02.836Z,15.14
2022-11-13T15:30:47.905Z,13.94
2022-11-13T15:33:32.853Z,12.68
2022-11-13T15:36:17.600Z,11.65
2022-11-13T15:39:06.447Z,11.02
2022-11-13T15:41:52.336Z,10.54
2022-11-13T15:44:37.226Z,10.14
2022-11-13T15:47:26.806Z,9.80
2022-11-13T15:50:14.872Z,9.54
2022-11-13T15:53:05.421Z,9.28
2022-11-13T15:55:51.277Z,9.07
2022-11-13T15:58:36.437Z,8.86
2022-11-13T16:01:21.738Z,8.68
2022-11-13T16:04:08.108Z,8.50
2022-11-13T16:06:54.607Z,8.41
2022-11-13T16:09:39.526Z,8.34
2022-11-13T16:12:24.189Z,8.26
2022-11-13T16:15:12.861Z,8.20
2022-11-13T16:17:59.382Z,8.10
2022-11-13T16:20:44.014Z,8.09
2022-11-13T16:23:29.357Z,8.06
2022-11-13T16:26:25.881Z,8.02
2022-11-13T16:29:18.797Z,8.01
2022-11-13T16:32:03.770Z,7.97
2022-11-13T16:34:49.058Z,7.94
2022-11-13T16:37:34.495Z,7.93
2022-11-13T16:40:22.845Z,7.85
2022-11-13T16:43:07.962Z,7.79
2022-11-13T16:45:53.263Z,7.73
2022-11-13T16:48:38.235Z,7.65
2022-11-13T16:51:23.476Z,7.60
2022-11-13T16:54:08.211Z,7.53
2022-11-13T16:56:53.028Z,7.56
2022-11-13T16:59:38.268Z,7.52
2022-11-13T17:02:23.622Z,7.51
2022-11-13T17:05:17.668Z,7.45
2022-11-13T17:08:03.559Z,7.38
2022-11-13T17:10:58.696Z,7.29
2022-11-13T17:13:48.341Z,7.27
2022-11-13T17:16:33.235Z,7.28
2022-11-13T17:19:18.085Z,7.25
2022-11-13T17:22:03.051Z,7.21
2022-11-13T17:24:47.870Z,7.19
2022-11-13T17:27:32.787Z,7.16
2022-11-13T17:30:17.800Z,7.07
2022-11-13T17:33:03.083Z,7.10
2022-11-13T17:35:54.060Z,7.07
2022-11-13T17:38:39.903Z,7.01
2022-11-13T17:41:24.787Z,6.95
2022-11-13T17:44:09.594Z,6.91
2022-11-13T17:46:54.602Z,6.88
2022-11-13T17:49:39.458Z,6.81
2022-11-13T17:52:24.335Z,6.77
2022-11-13T17:55:11.799Z,6.74
2022-11-13T17:57:59.853Z,6.69
2022-11-13T18:00:44.901Z,6.70
2022-11-13T18:03:30.524Z,6.70
2022-11-13T18:06:19.745Z,6.67
2022-11-13T18:09:05.073Z,6.64
2022-11-13T18:11:50.162Z,6.59
2022-11-13T18:14:34.975Z,6.55
2022-11-13T18:17:22.093Z,6.51
2022-11-13T18:20:07.411Z,6.51
2022-11-13T18:22:52.542Z,6.45
2022-11-13T18:25:39.704Z,6.43
2022-11-13T18:28:24.691Z,6.43
2022-11-13T18:31:13.052Z,6.43
2022-11-13T18:33:59.178Z,6.45
2022-11-13T18:36:44.241Z,6.44
2022-11-13T18:39:29.096Z,6.42
2022-11-13T18:42:13.934Z,6.38
2022-11-13T18:45:01.736Z,6.42
2022-11-13T18:47:50.672Z,6.38
2022-11-13T18:50:35.463Z,6.36
2022-11-13T18:53:20.344Z,6.34
2022-11-13T18:56:08.394Z,6.33
2022-11-13T18:58:55.152Z,6.32
2022-11-13T19:01:40.468Z,6.31
2022-11-13T19:04:25.723Z,6.27
2022-11-13T19:07:12.145Z,6.26
2022-11-13T19:09:57.435Z,6.25
2022-11-13T19:12:42.532Z,6.20
2022-11-13T19:15:27.583Z,6.14
2022-11-13T19:18:12.399Z,6.07
2022-11-13T19:20:57.209Z,6.00
2022-11-13T19:23:42.047Z,5.93
2022-11-13T19:26:27.470Z,5.92
2022-11-13T19:29:12.854Z,5.75
2022-11-13T19:31:58.107Z,5.67
2022-11-13T19:34:46.447Z,5.58
2022-11-13T19:37:32.259Z,5.63
2022-11-13T19:40:17.288Z,5.62
2022-11-13T19:43:01.999Z,5.60
2022-11-13T19:45:46.825Z,5.63
2022-11-13T19:48:32.525Z,5.56
2022-11-13T19:51:20.723Z,5.62
2022-11-13T19:54:05.912Z,5.58
2022-11-13T19:56:50.736Z,5.60
2022-11-13T19:59:35.650Z,5.64
2022-11-13T20:02:20.510Z,5.67
2022-11-13T20:05:05.691Z,5.70
2022-11-13T20:07:50.828Z,5.71
2022-11-13T20:10:36.069Z,5.75
2022-11-13T20:13:20.755Z,5.79
2022-11-13T20:16:07.321Z,5.82
2022-11-13T20:18:56.736Z,5.82
2022-11-13T20:21:41.774Z,5.84
2022-11-13T20:24:26.555Z,5.85
2022-11-13T20:27:11.411Z,5.82
2022-11-13T20:29:57.420Z,5.82
2022-11-13T20:32:42.770Z,5.80
2022-11-13T20:35:27.495Z,5.80
2022-11-13T20:38:12.243Z,5.76
2022-11-13T20:40:57.017Z,5.70
2022-11-13T20:43:42.116Z,5.60
2022-11-13T20:46:27.875Z,5.48
2022-11-13T20:49:12.717Z,5.40
2022-11-13T20:51:57.641Z,5.34
2022-11-13T20:54:42.398Z,5.29
2022-11-13T20:57:27.219Z,5.26
2022-11-13T21:00:12.302Z,5.22
2022-11-13T21:02:57.512Z,5.30
2022-11-13T21:05:42.272Z,5.39
2022-11-13T21:08:27.417Z,5.42
2022-11-13T21:11:21.992Z,5.46
2022-11-13T21:14:09.578Z,5.48
2022-11-13T21:16:54.461Z,5.49
2022-11-13T21:19:39.388Z,5.50
2022-11-13T21:22:24.349Z,5.55
2022-11-13T21:25:09.443Z,5.54
2022-11-13T21:27:55.486Z,5.54
2022-11-13T21:30:40.173Z,5.51
2022-11-13T21:33:25.047Z,5.47
2022-11-13T21:36:19.958Z,5.48
2022-11-13T21:39:04.853Z,5.45
2022-11-13T21:41:49.640Z,5.42
2022-11-13T21:44:35.216Z,5.40
2022-11-13T21:47:20.309Z,5.36
2022-11-13T21:50:05.802Z,5.38
2022-11-13T21:52:50.876Z,5.40
2022-11-13T21:55:35.764Z,5.42
2022-11-13T21:58:32.161Z,5.42
2022-11-13T22:01:17.360Z,5.35
2022-11-13T22:04:02.440Z,5.33
2022-11-13T22:06:48.924Z,5.30
2022-11-13T22:09:33.915Z,5.29
2022-11-13T22:12:19.351Z,5.29
2022-11-13T22:15:04.988Z,5.31
2022-11-13T22:17:49.850Z,5.29
2022-11-13T22:20:34.710Z,5.32
2022-11-13T22:23:19.484Z,5.30
2022-11-13T22:26:06.513Z,5.27
2022-11-13T22:28:53.122Z,5.31
2022-11-13T22:31:38.743Z,5.31
2022-11-13T22:34:23.825Z,5.36
2022-11-13T22:37:08.790Z,5.38
2022-11-13T22:39:53.527Z,5.38
2022-11-13T22:42:38.401Z,5.44
2022-11-13T22:45:24.272Z,5.46
2022-11-13T22:48:10.739Z,5.44
2022-11-13T22:50:56.140Z,5.46
2022-11-13T22:53:43.424Z,5.48
2022-11-13T22:56:30.698Z,5.48
2022-11-13T22:59:15.822Z,5.47
2022-11-13T23:02:00.585Z,5.45
2022-11-13T23:04:45.649Z,5.44
2022-11-13T23:07:30.645Z,5.44
2022-11-13T23:10:16.012Z,5.44
2022-11-13T23:13:00.787Z,5.43
2022-11-13T23:15:45.775Z,5.37
2022-11-13T23:18:31.697Z,5.38
2022-11-13T23:21:17.662Z,5.33
2022-11-13T23:24:03.301Z,5.20
2022-11-13T23:26:48.260Z,5.15
2022-11-13T23:29:33.122Z,5.06
2022-11-13T23:32:17.916Z,5.01
2022-11-13T23:35:03.044Z,4.93
2022-11-13T23:37:48.203Z,4.88
2022-11-13T23:40:33.267Z,4.88
2022-11-13T23:43:18.565Z,4.88
2022-11-13T23:46:03.483Z,4.88
2022-11-13T23:48:48.521Z,4.85
2022-11-13T23:51:33.238Z,4.78
2022-11-13T23:54:18.085Z,4.73
2022-11-13T23:57:02.943Z,4.68
2022-11-13T23:59:47.741Z,4.65
